Latest Weather Observations for Lucas Heights

IDN60901

Issued at 1:01 pm EST Tuesday 21 April 2015 (issued every 10 minutes, with the page automatically refreshed every 10 minutes)

About weather observations | Map of Sydney area stations | Latest observations for Sydney area | Other Formats
Station Details ID: 066023 Name: LUCAS HEIGHTS AWS Lat: -34.05 Lon: 150.98 Height: 140.0 m
Data from the previous 72 hours. | See also: Recent months for locations in New South Wales
Date/Time
EST
Tmp

°C
App
Tmp
°C
Dew
Point
°C
Rel
Hum
%
Delta-T

°C
Wind Press
QNH
hPa
Press
MSL
hPa
Rain
since
9 am
mm
Dir
 
Spd
km/h
Gust
km/h
Spd
kts
Gust
kts
21/12:45pm 13.9 4.5 12.8 93 0.6 SSE 54 93 29 50 1018.0 - 9.5
21/12:30pm 14.0 5.1 13.1 94 0.5 SSE 52 91 28 49 1018.3 - 9.4
21/12:15pm 14.0 4.7 13.1 94 0.5 SSE 54 83 29 45 1018.2 - 9.4
21/12:00pm 14.1 4.3 13.3 95 0.4 SSE 57 89 31 48 1018.3 - 9.2
21/11:45am 13.9 4.2 13.1 95 0.4 SSE 56 83 30 45 1018.5 - 8.8
21/11:30am 13.8 5.6 13.0 95 0.4 S 48 89 26 48 1018.8 - 8.8
21/11:15am 13.5 5.2 12.7 95 0.4 SSE 48 78 26 42 1019.4 - 8.5
21/11:00am 13.4 3.9 12.5 94 0.5 SSE 54 82 29 44 1019.9 - 7.6
21/10:45am 13.5 4.4 12.6 94 0.5 SSE 52 70 28 38 1020.0 - 7.0
21/10:30am 13.6 3.8 12.6 94 0.5 SSE 56 93 30 50 1020.2 - 6.1
21/10:15am 13.7 3.3 12.7 94 0.5 SSE 59 85 32 46 1019.9 - 5.8
21/10:00am 13.6 4.6 12.7 94 0.5 SSE 52 78 28 42 1020.0 - 5.2
21/09:45am 13.8 4.8 12.8 94 0.6 SSE 52 78 28 42 1020.1 - 3.2
21/09:30am 13.6 5.7 12.6 94 0.5 SSE 46 72 25 39 1020.3 - 2.5
21/09:15am 13.7 3.9 12.7 94 0.5 SSE 56 91 30 49 1020.0 - 1.6
21/09:00am 13.8 4.4 12.8 94 0.6 SSE 54 82 29 44 1019.9 - 96.5
21/08:45am 13.6 3.6 12.7 94 0.5 SSE 57 82 31 44 1020.4 - 95.8
21/08:30am 13.6 2.5 12.7 94 0.5 SSE 63 93 34 50 1020.2 - 94.3
21/08:15am 13.6 5.0 12.8 95 0.4 SSE 50 80 27 43 1020.8 - 93.2
21/08:00am 13.5 5.6 12.7 95 0.4 SSE 46 69 25 37 1020.5 - 92.5
21/07:45am 13.8 5.3 13.1 96 0.4 SSE 50 78 27 42 1020.0 - 90.5
21/07:30am 13.8 4.9 13.1 96 0.4 SSE 52 82 28 44 1020.1 - 89.3
21/07:15am 13.7 5.1 13.0 96 0.4 SSE 50 83 27 45 1020.3 - 88.9
21/07:00am 13.5 5.3 12.9 96 0.3 SSE 48 78 26 42 1019.7 - 88.6
21/06:45am 13.5 4.1 12.8 95 0.4 SSE 54 78 29 42 1019.6 - 87.8
21/06:30am 13.7 5.6 13.1 96 0.3 SSE 48 82 26 44 1019.8 - 87.1
21/06:15am 13.6 5.0 13.0 96 0.3 SSE 50 74 27 40 1020.0 - 85.7
21/06:00am 13.6 5.8 13.0 96 0.3 SSE 46 72 25 39 1020.2 - 84.1
21/05:45am 13.6 5.8 12.9 95 0.4 SSE 46 72 25 39 1020.1 - 82.6
21/05:30am 13.7 5.2 13.1 96 0.3 SSE 50 78 27 42 1019.9 - 81.5
21/05:15am 13.8 4.5 13.2 96 0.3 SSE 54 89 29 48 1019.8 - 80.5
21/05:00am 13.9 5.1 13.3 96 0.3 SSE 52 72 28 39 1019.9 - 79.7
21/04:45am 13.8 4.9 13.2 96 0.3 SSE 52 74 28 40 1020.1 - 79.2
21/04:30am 13.8 4.9 13.2 96 0.3 SSE 52 74 28 40 1020.3 - 77.9
21/04:15am 13.6 6.2 13.1 97 0.3 SSE 44 67 24 36 1020.2 - 77.2
21/04:00am 13.5 5.3 13.0 97 0.3 SSE 48 76 26 41 1020.2 - 76.1
21/03:45am 13.6 4.7 13.0 96 0.3 SSE 52 82 28 44 1020.2 - 75.2
21/03:30am 13.6 4.7 13.0 96 0.3 SSE 52 85 28 46 1020.3 - 74.2
21/03:15am 13.7 5.1 13.0 96 0.4 SSE 50 74 27 40 1020.3 - 72.9
21/03:00am 13.6 5.8 13.0 96 0.3 SSE 46 69 25 37 1020.4 - 72.2
21/02:45am 13.7 5.5 13.0 96 0.4 SSE 48 76 26 41 1020.7 - 70.9
21/02:30am 13.7 4.8 13.0 96 0.4 SSE 52 80 28 43 1020.6 - 70.0
21/02:15am 13.9 5.4 13.3 96 0.3 SSE 50 82 27 44 1020.7 - 69.3
21/02:00am 14.0 6.7 13.3 96 0.4 SSE 44 69 24 37 1020.9 - 68.8
21/01:45am 14.0 6.0 13.4 96 0.3 SSE 48 82 26 44 1021.1 - 68.2
21/01:30am 14.2 6.2 13.5 96 0.4 SSE 48 72 26 39 1021.3 - 67.3
21/01:15am 14.2 5.1 13.6 96 0.3 SSE 54 82 29 44 1021.2 - 66.6
21/01:00am 14.4 5.3 13.7 96 0.4 SSE 54 78 29 42 1021.1 - 65.7
21/12:45am 14.2 5.5 13.6 96 0.3 SSE 52 74 28 40 1021.3 - 65.2
21/12:30am 14.0 5.5 13.1 94 0.5 SSE 50 78 27 42 1021.5 - 64.8
21/12:15am 13.8 5.9 12.7 93 0.6 SSE 46 78 25 42 1021.6 - 64.3
21/12:00am 14.0 5.0 12.9 93 0.6 SSE 52 74 28 40 1021.8 - 63.2
 
Date/Time
EST
Tmp

°C
App
Tmp
°C
Dew
Point
°C
Rel
Hum
%
Delta-T

°C
Wind Press
QNH
hPa
Press
MSL
hPa
Rain
since
9 am
mm
Dir
 
Spd
km/h
Gust
km/h
Spd
kts
Gust
kts
20/11:45pm 14.1 4.8 12.9 92 0.7 SSE 54 78 29 42 1022.0 - 62.5
20/11:30pm 14.2 5.3 13.0 92 0.7 SSE 52 85 28 46 1022.1 - 61.6
20/11:15pm 14.1 5.5 12.9 92 0.7 SSE 50 80 27 43 1022.2 - 60.5
20/11:00pm 14.1 6.7 13.0 93 0.6 SSE 44 72 24 39 1022.3 - 59.9
20/10:45pm 14.2 6.8 13.0 92 0.7 SSE 44 72 24 39 1022.4 - 59.6
20/10:30pm 14.3 6.6 13.2 93 0.6 SSE 46 69 25 37 1022.6 - 59.0
20/10:15pm 14.4 5.9 13.3 93 0.6 SSE 50 74 27 40 1022.8 - 58.3
20/10:00pm 14.4 6.3 13.3 93 0.6 SSE 48 74 26 40 1022.8 - 56.7
20/09:45pm 14.3 5.8 13.1 92 0.7 SSE 50 74 27 40 1022.8 - 55.8
20/09:30pm 14.2 5.6 13.0 92 0.7 SSE 50 67 27 36 1022.9 - 54.5
20/09:15pm 14.3 6.2 13.1 92 0.7 SSE 48 69 26 37 1023.2 - 54.0
20/09:00pm 14.4 7.0 13.2 92 0.7 SSE 44 72 24 39 1023.4 - 53.5
20/08:45pm 14.4 7.7 13.3 93 0.6 SSE 41 70 22 38 1023.4 - 52.6
20/08:30pm 14.5 7.8 13.4 93 0.6 SSE 41 76 22 41 1023.2 - 51.3
20/08:15pm 14.4 6.4 13.4 94 0.6 SSE 48 80 26 43 1022.8 - 50.4
20/08:00pm 14.5 6.5 13.5 94 0.6 SSE 48 78 26 42 1022.7 - 49.1
20/07:45pm 14.6 7.0 13.6 94 0.6 SSE 46 69 25 37 1022.5 - 47.3
20/07:30pm 14.5 6.9 13.6 94 0.5 SSE 46 76 25 41 1022.3 - 46.1
20/07:15pm 14.5 6.5 13.5 94 0.6 SSE 48 74 26 40 1022.4 - 45.4
20/07:00pm 14.6 6.2 13.6 94 0.6 SSE 50 78 27 42 1022.2 - 44.3
20/06:45pm 14.7 7.5 13.7 94 0.6 SSE 44 85 24 46 1022.2 - 41.8
20/06:30pm 14.7 6.0 13.7 94 0.6 SSE 52 87 28 47 1021.9 - 39.4
20/06:15pm 14.8 6.1 13.8 94 0.6 SSE 52 83 28 45 1021.9 - 37.8
20/06:00pm 14.8 7.8 13.8 94 0.6 SSE 43 69 23 37 1021.7 - 35.8
20/05:45pm 14.7 7.5 13.7 94 0.6 SSE 44 74 24 40 1021.4 - 34.9
20/05:30pm 14.8 6.2 13.9 94 0.5 SSE 52 80 28 43 1021.2 - 32.8
20/05:15pm 14.9 5.9 14.0 94 0.5 SSE 54 83 29 45 1020.8 - 31.7
20/05:00pm 14.8 5.7 13.8 94 0.6 SSE 54 78 29 42 1020.7 - 30.2
20/04:45pm 14.9 6.3 13.9 94 0.6 SSE 52 82 28 44 1020.7 - 29.0
20/04:30pm 14.9 7.0 13.9 94 0.6 SSE 48 78 26 42 1020.9 - 27.9
20/04:15pm 14.8 6.9 13.9 94 0.5 SSE 48 72 26 39 1021.0 - 26.6
20/04:00pm 15.0 6.4 14.1 94 0.5 SSE 52 80 28 43 1021.0 - 26.5
20/03:45pm 15.1 7.7 14.2 94 0.5 SSE 46 72 25 39 1021.0 - 25.4
20/03:30pm 15.3 7.2 14.4 94 0.5 SSE 50 82 27 44 1021.0 - 25.4
20/03:15pm 15.2 9.2 14.3 94 0.5 SSE 39 72 21 39 1021.1 - 24.8
20/03:00pm 15.3 9.3 14.3 94 0.6 SSE 39 82 21 44 1021.1 - 24.3
20/02:45pm 15.4 9.4 14.5 94 0.5 SSE 39 72 21 39 1021.1 - 23.8
20/02:30pm 15.3 8.9 14.4 94 0.5 SSE 41 72 22 39 1021.3 - 23.0
20/02:15pm 15.1 8.2 14.1 94 0.6 SSE 43 67 23 36 1021.4 - 22.1
20/02:00pm 14.8 9.0 13.9 94 0.5 SSE 37 69 20 37 1021.5 - 21.1
20/01:45pm 14.7 10.1 13.6 93 0.6 SSE 30 54 16 29 1021.7 - 19.8
20/01:30pm 14.7 8.8 13.5 92 0.7 SSE 37 56 20 30 1021.3 - 13.5
20/01:15pm 15.0 8.4 13.8 92 0.7 SSE 41 63 22 34 1021.2 - 9.2
20/01:00pm 15.2 8.1 14.1 93 0.6 SSE 44 72 24 39 1021.5 - 8.3
20/12:45pm 15.2 9.1 14.2 94 0.6 SSE 39 63 21 34 1021.8 - 8.1
20/12:30pm 14.9 8.7 13.9 94 0.6 SSE 39 63 21 34 1022.3 - 7.9
20/12:15pm 14.9 8.3 13.8 93 0.6 SSE 41 61 22 33 1022.6 - 7.6
20/12:00pm 14.7 9.2 13.7 94 0.6 SSE 35 56 19 30 1023.1 - 6.8
20/11:45am 14.6 10.0 13.6 94 0.6 S 30 48 16 26 1023.9 - 6.3
20/11:30am 14.4 9.8 13.4 94 0.6 SSE 30 43 16 23 1024.1 - 5.9
20/11:15am 14.2 8.2 13.2 94 0.6 SSE 37 52 20 28 1023.7 - 5.4
20/11:00am 14.1 7.3 13.1 94 0.6 SSE 41 61 22 33 1023.7 - 4.7
20/10:45am 14.0 8.9 13.0 94 0.6 SSE 32 44 17 24 1024.0 - 4.0
20/10:30am 13.5 8.6 12.5 94 0.5 S 30 44 16 24 1023.9 - 3.4
20/10:15am 13.3 8.3 12.3 94 0.5 S 30 52 16 28 1024.2 - 2.9
20/10:00am 13.3 8.3 12.3 94 0.5 S 30 52 16 28 1024.6 - 2.3
20/09:45am 13.1 7.6 12.0 93 0.6 S 32 59 17 32 1024.6 - 2.2
20/09:30am 13.1 7.4 11.9 92 0.6 SSE 33 63 18 34 1023.9 - 2.0
20/09:15am 13.0 6.1 11.7 92 0.7 S 39 54 21 29 1023.4 - 0.9
20/09:00am 13.1 7.9 11.7 91 0.8 S 30 59 16 32 1024.0 - 3.2
20/08:45am 13.2 8.1 11.8 91 0.8 S 30 54 16 29 1024.4 - 2.5
20/08:30am 13.2 7.7 11.8 91 0.8 S 32 54 17 29 1024.3 - 2.5
20/08:15am 13.2 7.5 11.9 92 0.7 S 33 57 18 31 1023.8 - 2.5
20/08:00am 12.9 7.3 11.6 92 0.7 S 32 52 17 28 1023.8 - 2.5
20/07:45am 12.6 7.7 11.3 92 0.7 S 28 50 15 27 1024.0 - 2.5
20/07:30am 12.5 8.3 11.1 91 0.7 S 24 43 13 23 1024.3 - 2.5
20/07:15am 12.4 7.4 11.0 91 0.7 S 28 46 15 25 1024.1 - 2.2
20/07:00am 12.2 7.5 10.8 91 0.7 S 26 44 14 24 1023.8 - 2.2
20/06:45am 12.1 7.0 10.6 90 0.8 S 28 48 15 26 1023.6 - 2.0
20/06:30am 12.0 6.9 10.5 90 0.8 S 28 44 15 24 1023.8 - 2.0
20/06:15am 12.3 7.2 10.6 89 0.9 S 28 48 15 26 1023.9 - 1.8
20/06:00am 12.4 7.7 10.7 89 0.9 S 26 39 14 21 1023.9 - 1.8
20/05:45am 12.2 7.9 10.7 90 0.8 S 24 39 13 21 1023.9 - 1.8
20/05:30am 12.2 7.5 10.7 90 0.8 S 26 41 14 22 1023.8 - 1.6
20/05:15am 12.0 8.4 10.5 90 0.8 S 20 33 11 18 1023.7 - 1.6
20/05:00am 11.7 8.0 10.3 91 0.7 S 20 32 11 17 1023.7 - 1.6
20/04:45am 11.7 7.2 10.2 90 0.8 S 24 43 13 23 1023.7 - 1.6
20/04:30am 11.6 6.8 10.2 91 0.7 S 26 43 14 23 1023.6 - 1.6
20/04:15am 11.5 6.2 10.0 90 0.8 S 28 43 15 23 1023.5 - 1.6
20/04:00am 11.5 6.2 9.9 90 0.8 S 28 44 15 24 1023.4 - 1.6
20/03:45am 11.6 6.7 10.0 90 0.8 S 26 50 14 27 1023.5 - 1.6
20/03:30am 11.6 7.1 9.9 89 0.9 S 24 43 13 23 1023.5 - 1.6
20/03:15am 11.7 6.1 10.0 89 0.9 S 30 52 16 28 1023.8 - 1.6
20/03:00am 12.0 6.8 10.3 89 0.9 S 28 44 15 24 1024.3 - 1.4
20/02:45am 11.9 7.5 10.3 90 0.8 S 24 39 13 21 1024.4 - 1.4
20/02:30am 11.8 8.1 10.2 90 0.8 S 20 37 11 20 1024.3 - 1.4
20/02:15am 11.6 7.5 10.1 90 0.8 S 22 39 12 21 1024.2 - 1.4
20/02:00am 11.5 6.3 10.1 91 0.7 S 28 48 15 26 1024.1 - 1.4
20/01:45am 11.5 5.9 10.1 91 0.7 S 30 48 16 26 1024.5 - 1.4
20/01:30am 11.4 6.5 10.0 91 0.7 S 26 44 14 24 1024.9 - 1.4
20/01:15am 11.5 6.2 10.0 90 0.8 S 28 44 15 24 1025.0 - 1.3
20/01:00am 11.5 7.4 10.1 91 0.7 S 22 44 12 24 1024.9 - 1.3
20/12:45am 11.6 7.1 10.0 90 0.8 S 24 39 13 21 1025.1 - 1.1
20/12:30am 11.8 7.0 10.2 90 0.8 S 26 39 14 21 1025.2 - 1.1
20/12:15am 11.6 7.5 10.0 90 0.8 S 22 37 12 20 1025.2 - 0.9
20/12:00am 11.7 7.6 10.1 90 0.8 SSW 22 32 12 17 1025.4 - 0.9
 
Date/Time
EST
Tmp

°C
App
Tmp
°C
Dew
Point
°C
Rel
Hum
%
Delta-T

°C
Wind Press
QNH
hPa
Press
MSL
hPa
Rain
since
9 am
mm
Dir
 
Spd
km/h
Gust
km/h
Spd
kts
Gust
kts
19/11:45pm 11.6 8.4 10.0 90 0.8 S 17 30 9 16 1025.5 - 0.7
19/11:30pm 11.6 7.0 9.8 89 0.9 S 24 41 13 22 1025.5 - 0.7
19/11:15pm 11.7 8.1 9.7 87 1.0 S 19 39 10 21 1025.5 - 0.5
19/11:00pm 12.0 7.8 9.6 85 1.2 S 22 39 12 21 1025.5 - 0.4
19/10:45pm 12.5 7.9 9.6 82 1.5 S 24 41 13 22 1025.5 - 0.0
19/10:30pm 12.9 7.9 9.7 81 1.6 S 26 43 14 23 1025.5 - 0.0
19/10:15pm 13.2 9.0 9.9 80 1.7 S 22 35 12 19 1025.4 - 0.0
19/10:00pm 13.4 9.3 10.0 80 1.8 S 22 43 12 23 1025.3 - 0.0
19/09:45pm 13.5 8.6 10.1 80 1.8 S 26 50 14 27 1025.0 - 0.0
19/09:30pm 13.6 8.4 10.1 79 1.8 S 28 43 15 23 1024.8 - 0.0
19/09:15pm 13.7 8.8 9.8 77 2.0 S 26 44 14 24 1024.7 - 0.0
19/09:00pm 13.7 9.5 9.7 77 2.1 S 22 39 12 21 1025.0 - 0.0
19/08:45pm 13.6 9.4 9.6 77 2.1 S 22 43 12 23 1024.9 - 0.0
19/08:30pm 13.5 8.9 9.5 77 2.1 SSW 24 46 13 25 1024.7 - 0.0
19/08:15pm 13.3 8.7 9.5 78 2.0 SSW 24 37 13 20 1024.5 - 0.0
19/08:00pm 13.3 8.3 9.5 78 2.0 S 26 46 14 25 1024.2 - 0.0
19/07:45pm 13.3 7.9 9.5 78 2.0 S 28 48 15 26 1023.9 - 0.0
19/07:30pm 13.3 7.5 9.5 78 2.0 S 30 44 16 24 1023.5 - 0.0
19/07:15pm 13.4 8.0 9.5 77 2.0 S 28 44 15 24 1023.0 - 0.0
19/07:00pm 13.6 7.8 9.6 77 2.1 S 30 48 16 26 1022.8 - 0.0
19/06:45pm 13.6 7.5 9.7 77 2.0 S 32 52 17 28 1022.7 - 0.0
19/06:30pm 13.7 8.4 10.0 78 1.9 S 28 43 15 23 1022.5 - 0.0
19/06:15pm 13.9 8.0 10.4 79 1.8 S 32 48 17 26 1022.3 - 0.0
19/06:00pm 14.0 8.5 10.7 80 1.7 S 30 50 16 27 1022.1 - 0.0
19/05:45pm 14.2 8.2 10.9 80 1.8 SSE 33 54 18 29 1021.8 - 0.0
19/05:30pm 14.6 8.3 11.1 79 1.9 SSE 35 54 19 29 1021.6 - 0.0
19/05:15pm 14.8 9.1 11.0 78 2.0 SSE 32 48 17 26 1021.6 - 0.0
19/05:00pm 15.1 8.1 11.2 77 2.1 SSE 39 61 21 33 1021.3 - 0.0
19/04:45pm 15.7 9.1 11.4 75 2.3 SSE 37 57 20 31 1021.0 - 0.0
19/04:30pm 16.4 10.3 11.7 74 2.6 SSE 35 57 19 31 1020.6 - 0.0
19/04:15pm 16.9 11.9 12.2 74 2.6 SSE 30 50 16 27 1020.4 - 0.0
19/04:00pm 17.0 10.3 12.3 74 2.6 SSE 39 57 21 31 1020.2 - 0.0
19/03:45pm 17.1 11.6 12.6 75 2.5 SSE 33 57 18 31 1020.1 - 0.0
19/03:30pm 17.3 12.0 13.2 77 2.3 SSE 33 52 18 28 1020.1 - 0.0
19/03:15pm 17.3 10.9 13.1 76 2.4 SSE 39 54 21 29 1019.9 - 0.0
19/03:00pm 17.7 13.1 13.6 77 2.3 SSE 30 44 16 24 1019.7 - 0.0
19/02:45pm 17.8 12.6 13.5 76 2.4 S 33 52 18 28 1019.6 - 0.0
19/02:30pm 18.1 13.9 13.6 75 2.6 SSE 28 44 15 24 1019.4 - 0.0
19/02:15pm 18.0 13.8 13.6 75 2.5 SSE 28 43 15 23 1019.4 - 0.0
19/02:00pm 17.9 13.4 13.8 77 2.3 S 30 50 16 27 1019.3 - 0.0
19/01:45pm 18.1 13.0 13.8 76 2.5 S 33 43 18 23 1019.2 - 0.0
19/01:30pm 18.4 15.2 14.2 76 2.4 SSE 24 39 13 21 1019.1 - 0.0
19/01:15pm 18.4 14.1 14.3 77 2.4 SSE 30 41 16 22 1019.2 - 0.0
19/01:00pm 19.0 15.6 14.7 76 2.5 SSE 26 37 14 20 1019.2 - 0.0
19/12:45pm 19.1 16.5 14.9 76 2.5 SSE 22 37 12 20 1019.2 - 0.0
19/12:30pm 18.8 15.3 14.4 75 2.6 SSE 26 39 14 21 1019.3 - 0.0
19/12:15pm 19.4 16.4 14.8 75 2.7 SSE 24 37 13 20 1019.3 - 0.0
19/12:00pm 19.0 16.9 14.6 75 2.6 SSE 19 32 10 17 1019.3 - 0.0
19/11:45am 19.1 16.4 13.6 70 3.2 SSE 20 32 11 17 1019.2 - 0.0
19/11:30am 20.8 20.5 13.4 62 4.3 S 7 26 4 14 1019.1 - 0.0
19/11:15am 20.7 20.5 13.7 64 4.1 SSW 7 17 4 9 1019.2 - 0.0
19/11:00am 20.5 18.7 13.2 63 4.2 SW 15 20 8 11 1019.1 - 0.0
19/10:45am 20.1 18.2 13.1 64 4.0 SW 15 22 8 12 1019.0 - 0.0
19/10:30am 19.7 17.3 12.7 64 4.0 SW 17 24 9 13 1019.0 - 0.0
19/10:15am 19.6 17.6 12.8 65 3.9 SW 15 22 8 12 1019.0 - 0.0
19/10:00am 19.3 17.2 12.5 64 3.8 SW 15 22 8 12 1018.8 - 0.0
19/09:45am 19.1 16.7 12.6 66 3.7 SW 17 30 9 16 1018.7 - 0.0
19/09:30am 18.5 15.6 12.2 66 3.5 SW 19 26 10 14 1018.7 - 0.0
19/09:15am 18.1 15.1 11.8 66 3.5 SW 19 32 10 17 1018.6 - 0.0
19/09:00am 18.1 15.1 11.9 67 3.4 SW 19 28 10 15 1018.5 - 5.6
19/08:45am 17.5 14.4 11.5 68 3.3 SW 19 33 10 18 1018.3 - 5.6
19/08:30am 17.3 13.6 11.4 68 3.2 WSW 22 33 12 18 1017.9 - 5.6
19/08:15am 16.9 13.3 11.7 71 2.9 WSW 22 30 12 16 1017.8 - 5.6
19/08:00am 16.9 13.3 13.0 78 2.2 WSW 24 32 13 17 1017.8 - 5.6
19/07:45am 16.5 13.5 14.7 89 1.0 SW 24 28 13 15 1017.6 - 5.6
19/07:30am 15.9 12.6 14.9 94 0.6 SW 26 30 14 16 1017.2 - 5.6
19/07:15am 15.6 13.0 14.8 95 0.5 SSW 22 24 12 13 1016.7 - 5.6
19/07:00am 15.6 13.0 14.9 96 0.4 SW 22 24 12 13 1016.4 - 5.6
19/06:45am 15.7 13.1 15.0 96 0.4 SW 22 28 12 15 1016.2 - 5.6
19/06:30am 15.7 14.1 15.0 96 0.4 SW 17 24 9 13 1015.8 - 5.6
19/06:15am 15.8 14.6 15.1 96 0.4 SW 15 19 8 10 1015.5 - 5.6
19/06:00am 15.9 14.4 15.2 96 0.4 SW 17 19 9 10 1015.3 - 5.6
19/05:45am 16.0 14.9 15.3 96 0.4 SW 15 19 8 10 1015.1 - 5.6
19/05:30am 16.3 16.8 15.6 96 0.4 SW 7 13 4 7 1015.0 - 5.6
19/05:15am 16.6 17.4 15.9 96 0.4 WNW 6 9 3 5 1015.1 - 5.6
19/05:00am 16.8 17.5 16.1 96 0.4 NW 7 9 4 5 1014.9 - 5.6
19/04:45am 16.9 17.6 16.2 96 0.4 WNW 7 13 4 7 1014.6 - 5.6
19/04:30am 17.0 17.9 16.2 95 0.5 W 6 11 3 6 1014.4 - 5.6
19/04:15am 17.1 17.5 16.3 95 0.5 W 9 11 5 6 1014.2 - 5.6
19/04:00am 17.2 17.7 16.5 96 0.4 W 9 15 5 8 1014.1 - 5.6
19/03:45am 17.3 17.4 16.5 95 0.5 WNW 11 17 6 9 1014.0 - 5.6
19/03:30am 17.2 16.9 16.5 96 0.4 W 13 17 7 9 1013.9 - 5.6
19/03:15am 17.2 16.1 16.4 95 0.5 W 17 19 9 10 1013.8 - 5.6
19/03:00am 17.2 16.5 16.4 95 0.5 W 15 19 8 10 1013.7 - 5.6
19/02:45am 17.3 17.0 16.5 95 0.5 W 13 17 7 9 1013.8 - 5.6
19/02:30am 17.3 17.4 16.5 95 0.5 W 11 15 6 8 1013.9 - 5.4
19/02:15am 17.3 17.4 16.5 95 0.5 WNW 11 15 6 8 1013.7 - 5.4
19/02:00am 17.3 17.8 16.5 95 0.5 WNW 9 13 5 7 1013.5 - 5.4
19/01:45am 17.4 17.9 16.5 94 0.5 NW 9 13 5 7 1013.8 - 5.4
19/01:30am 17.5 17.6 16.6 94 0.5 NW 11 17 6 9 1014.0 - 5.4
19/01:15am 17.5 17.3 16.6 94 0.5 NW 13 17 7 9 1014.6 - 5.4
19/01:00am 17.5 16.9 16.6 94 0.5 NW 15 22 8 12 1014.8 - 5.2
19/12:45am 17.6 16.6 16.6 94 0.6 NNW 17 24 9 13 1014.6 - 5.2
19/12:30am 17.6 16.6 16.6 94 0.6 NNW 17 22 9 12 1014.6 - 4.9
19/12:15am 17.5 16.0 16.3 93 0.7 NNW 19 24 10 13 1014.8 - 4.7
19/12:00am 17.6 16.0 16.5 93 0.7 NNW 20 26 11 14 1014.8 - 4.3
 
Date/Time
EST
Tmp

°C
App
Tmp
°C
Dew
Point
°C
Rel
Hum
%
Delta-T

°C
Wind Press
QNH
hPa
Press
MSL
hPa
Rain
since
9 am
mm
Dir
 
Spd
km/h
Gust
km/h
Spd
kts
Gust
kts
18/11:45pm 17.7 16.3 16.5 93 0.7 NNW 19 24 10 13 1014.7 - 4.0
18/11:30pm 17.8 16.4 16.5 92 0.8 NW 19 22 10 12 1014.7 - 3.4
18/11:15pm 17.9 16.5 16.6 92 0.8 NW 19 24 10 13 1014.8 - 2.7
18/11:00pm 18.1 17.5 16.7 91 0.8 NW 15 22 8 12 1015.0 - 2.0
18/10:45pm 18.3 17.7 16.7 90 1.0 NW 15 19 8 10 1015.2 - 1.4
18/10:30pm 18.6 18.1 16.8 89 1.1 NW 15 19 8 10 1015.0 - 1.1
18/10:15pm 18.9 18.4 16.8 87 1.3 WNW 15 22 8 12 1015.1 - 0.9
18/10:00pm 19.3 18.5 17.0 86 1.4 WNW 17 22 9 12 1015.1 - 0.5
18/09:45pm 19.5 18.7 17.2 86 1.4 W 17 24 9 13 1015.1 - 0.2
18/09:30pm 19.4 18.5 16.9 85 1.5 WNW 17 24 9 13 1015.1 - 0.2
18/09:15pm 19.9 18.9 16.7 82 1.9 WNW 17 26 9 14 1015.0 - 0.2
18/09:00pm 20.9 19.6 17.2 79 2.3 WNW 20 37 11 20 1014.4 - 0.0
18/08:45pm 20.7 21.4 17.0 79 2.3 N 9 13 5 7 1013.6 - 0.0
18/08:30pm 20.6 21.3 17.0 80 2.2 N 9 13 5 7 1013.6 - 0.0
18/08:15pm 20.7 21.0 16.9 79 2.3 N 11 15 6 8 1013.6 - 0.0
18/08:00pm 20.8 21.1 16.9 78 2.4 N 11 13 6 7 1013.7 - 0.0
18/07:45pm 20.9 21.2 16.9 78 2.4 - 11 15 6 8 1013.6 - 0.0
18/07:30pm 21.1 21.4 17.0 77 2.5 - 11 17 6 9 1013.6 - 0.0
18/07:15pm 21.2 21.1 16.9 76 2.6 N 13 17 7 9 1013.4 - 0.0
18/07:00pm 21.5 21.4 17.0 75 2.8 N 13 19 7 10 1013.5 - 0.0
18/06:45pm 21.7 21.6 17.0 74 2.9 N 13 19 7 10 1013.5 - 0.0
18/06:30pm 21.9 21.8 17.0 73 3.0 N 13 19 7 10 1013.4 - 0.0
18/06:15pm 22.1 22.0 17.0 73 3.1 - 13 19 7 10 1013.4 - 0.0
18/06:00pm 22.3 22.2 16.9 71 3.3 - 13 20 7 11 1013.2 - 0.0
18/05:45pm 22.6 22.1 16.9 70 3.5 N 15 24 8 13 1013.1 - 0.0
18/05:30pm 22.7 22.2 17.0 70 3.5 N 15 20 8 11 1013.0 - 0.0
18/05:15pm 22.9 22.9 17.1 70 3.6 N 13 22 7 12 1013.1 - 0.0
18/05:00pm 23.3 22.9 17.2 68 3.8 N 15 24 8 13 1013.1 - 0.0
18/04:45pm 23.6 23.0 17.5 68 3.8 N 17 24 9 13 1013.1 - 0.0
18/04:30pm 23.8 23.6 17.7 68 3.8 N 15 24 8 13 1013.1 - 0.0
18/04:15pm 24.1 23.6 17.7 67 4.0 N 17 28 9 15 1013.3 - 0.0
18/04:00pm 24.3 23.4 17.7 66 4.1 N 19 30 10 16 1013.4 - 0.0
18/03:45pm 24.5 23.6 17.8 66 4.2 NNW 19 32 10 17 1013.3 - 0.0
18/03:30pm 24.4 23.8 17.6 66 4.3 N 17 30 9 16 1013.4 - 0.0
18/03:15pm 24.5 24.3 17.6 65 4.3 NNW 15 24 8 13 1013.5 - 0.0
18/03:00pm 24.8 25.1 17.8 65 4.4 NNW 13 24 7 13 1013.7 - 0.0
18/02:45pm 25.0 25.3 17.8 64 4.5 NNW 13 22 7 12 1013.8 - 0.0
18/02:30pm 24.9 24.3 17.6 64 4.6 NNW 17 24 9 13 1013.8 - 0.0
18/02:15pm 25.2 24.1 17.7 63 4.7 NNW 20 33 11 18 1014.0 - 0.0
18/02:00pm 25.5 25.5 18.0 63 4.8 NNW 15 26 8 14 1013.9 - 0.0
18/01:45pm 25.6 25.6 18.0 63 4.8 NNW 15 30 8 16 1014.0 - 0.0
18/01:30pm 25.9 25.9 18.0 61 5.0 N 15 22 8 12 1014.0 - 0.0
18/01:15pm 26.4 25.9 17.9 59 5.4 NNW 17 26 9 14 1014.0 - 0.0

Latest Capital City Observations: Canberra | Sydney | Melbourne | Brisbane | Adelaide | Perth | Hobart | Darwin

Other Formats:

Comma delimited format used in spreadsheet applications
http://www.bom.gov.au/fwo/IDN60901/IDN60901.95757.axf

JavaScript Object Notation format (JSON) in row-major order
http://www.bom.gov.au/fwo/IDN60901/IDN60901.95757.json